createdAt,value
2022-08-27T00:00:38.342Z,81.51
2022-08-27T00:03:10.592Z,81.31
2022-08-27T00:05:42.510Z,82.06
2022-08-27T00:08:17.298Z,82.35
2022-08-27T00:10:48.956Z,82.71
2022-08-27T00:13:20.626Z,82.53
2022-08-27T00:15:52.381Z,82.36
2022-08-27T00:18:24.052Z,82.24
2022-08-27T00:20:55.648Z,82.10
2022-08-27T00:23:27.412Z,81.85
2022-08-27T00:26:00.015Z,81.57
2022-08-27T00:28:32.252Z,82.09
2022-08-27T00:31:04.080Z,82.12
2022-08-27T00:33:35.869Z,81.96
2022-08-27T00:36:08.688Z,81.66
2022-08-27T00:38:41.220Z,81.89
2022-08-27T00:41:13.698Z,82.50
2022-08-27T00:43:52.417Z,82.46
2022-08-27T00:46:27.131Z,83.38
2022-08-27T00:49:05.367Z,83.27
2022-08-27T00:51:38.527Z,83.65
2022-08-27T00:54:11.224Z,83.66
2022-08-27T00:56:51.798Z,83.95
2022-08-27T00:59:29.284Z,84.74
2022-08-27T01:02:20.046Z,84.49
2022-08-27T01:05:05.469Z,84.53
2022-08-27T01:07:41.788Z,85.03
2022-08-27T01:10:16.857Z,83.98
2022-08-27T01:12:53.265Z,84.33
2022-08-27T01:15:27.968Z,84.37
2022-08-27T01:18:03.386Z,83.87
2022-08-27T01:21:09.879Z,84.91
2022-08-27T01:23:52.589Z,84.36
2022-08-27T01:26:25.209Z,84.23
2022-08-27T01:28:58.075Z,84.05
2022-08-27T01:31:29.935Z,84.03
2022-08-27T01:34:06.211Z,83.97
2022-08-27T01:36:37.900Z,83.41
2022-08-27T01:39:09.555Z,83.72
2022-08-27T01:41:44.562Z,83.60
2022-08-27T01:44:19.435Z,83.68
2022-08-27T01:46:52.559Z,83.40
2022-08-27T01:49:24.241Z,83.28
2022-08-27T01:51:55.933Z,83.95
2022-08-27T01:54:27.571Z,84.31
2022-08-27T01:56:59.992Z,84.29
2022-08-27T01:59:39.555Z,83.92
2022-08-27T02:02:14.332Z,83.92
2022-08-27T02:04:45.992Z,84.18
2022-08-27T02:07:18.369Z,84.18
2022-08-27T02:09:50.652Z,83.52
2022-08-27T02:12:22.417Z,83.34
2022-08-27T02:14:54.036Z,83.16
2022-08-27T02:17:25.692Z,83.24
2022-08-27T02:19:57.547Z,83.22
2022-08-27T02:22:31.340Z,82.94
2022-08-27T02:25:07.087Z,83.28
2022-08-27T02:27:43.880Z,83.34
2022-08-27T02:30:21.417Z,83.23
2022-08-27T02:32:53.471Z,83.63
2022-08-27T02:35:25.192Z,83.44
2022-08-27T02:37:57.480Z,83.81
2022-08-27T02:40:29.761Z,84.12
2022-08-27T02:43:01.564Z,83.76
2022-08-27T02:45:33.264Z,84.14
2022-08-27T02:48:08.012Z,84.02
2022-08-27T02:50:43.651Z,83.59
2022-08-27T02:53:15.280Z,83.68
2022-08-27T02:55:47.989Z,83.22
2022-08-27T02:58:19.700Z,83.42
2022-08-27T03:00:52.004Z,83.62
2022-08-27T03:03:23.703Z,83.60
2022-08-27T03:05:56.244Z,83.02
2022-08-27T03:08:28.795Z,82.71
2022-08-27T03:11:04.369Z,82.80
2022-08-27T03:13:38.203Z,82.77
2022-08-27T03:16:09.931Z,82.72
2022-08-27T03:18:41.868Z,82.65
2022-08-27T03:21:22.258Z,82.61
2022-08-27T03:23:54.365Z,82.64
2022-08-27T03:26:26.187Z,82.71
2022-08-27T03:28:59.295Z,82.55
2022-08-27T03:31:31.289Z,82.83
2022-08-27T03:34:07.479Z,83.34
2022-08-27T03:36:39.079Z,83.25
2022-08-27T03:39:10.697Z,83.10
2022-08-27T03:41:54.274Z,83.05
2022-08-27T03:44:27.027Z,83.04
2022-08-27T03:47:00.062Z,83.00
2022-08-27T03:49:32.964Z,82.95
2022-08-27T03:52:04.707Z,82.91
2022-08-27T03:54:38.371Z,82.91
2022-08-27T03:57:10.637Z,82.60
2022-08-27T03:59:42.278Z,82.92
2022-08-27T04:02:14.978Z,82.84
2022-08-27T04:04:47.279Z,83.03
2022-08-27T04:07:19.181Z,82.85
2022-08-27T04:09:50.837Z,83.00
2022-08-27T04:12:22.445Z,83.14
2022-08-27T04:14:54.534Z,83.39
2022-08-27T04:17:26.330Z,83.61
2022-08-27T04:20:08.678Z,83.72
2022-08-27T04:22:51.484Z,83.76
2022-08-27T04:25:23.121Z,84.26
2022-08-27T04:27:54.772Z,83.98
2022-08-27T04:30:26.824Z,84.14
2022-08-27T04:32:58.793Z,84.08
2022-08-27T04:35:30.520Z,84.33
2022-08-27T04:38:03.533Z,84.19
2022-08-27T04:40:55.761Z,84.18
2022-08-27T04:43:28.321Z,84.09
2022-08-27T04:46:02.875Z,84.12
2022-08-27T04:48:35.603Z,83.99
2022-08-27T04:51:10.123Z,84.10
2022-08-27T04:53:46.636Z,83.98
2022-08-27T04:56:21.905Z,84.29
2022-08-27T04:58:53.535Z,84.04
2022-08-27T05:01:28.922Z,83.39
2022-08-27T05:04:00.942Z,83.28
2022-08-27T05:06:33.680Z,83.17
2022-08-27T05:09:06.076Z,83.22
2022-08-27T05:11:37.787Z,83.13
2022-08-27T05:14:11.689Z,83.69
2022-08-27T05:16:43.485Z,83.94
2022-08-27T05:19:15.385Z,84.85
2022-08-27T05:21:48.903Z,86.24
2022-08-27T05:24:21.557Z,86.13
2022-08-27T05:26:53.958Z,85.55
2022-08-27T05:29:26.556Z,84.88
2022-08-27T05:31:58.406Z,84.35
2022-08-27T05:34:30.776Z,83.86
2022-08-27T05:37:03.502Z,83.66
2022-08-27T05:39:35.164Z,83.45
2022-08-27T05:42:07.303Z,83.59
2022-08-27T05:44:41.321Z,83.33
2022-08-27T05:47:13.290Z,83.73
2022-08-27T05:49:45.503Z,84.18
2022-08-27T05:52:17.167Z,84.62
2022-08-27T05:54:48.794Z,84.18
2022-08-27T05:57:20.443Z,83.61
2022-08-27T06:00:15.613Z,83.96
2022-08-27T06:02:50.571Z,84.03
2022-08-27T06:05:22.360Z,84.50
2022-08-27T06:07:54.042Z,84.50
2022-08-27T06:10:25.691Z,85.09
2022-08-27T06:12:57.338Z,85.11
2022-08-27T06:15:29.454Z,84.68
2022-08-27T06:18:01.623Z,84.58
2022-08-27T06:20:33.220Z,84.50
2022-08-27T06:23:05.499Z,84.03
2022-08-27T06:25:40.611Z,84.02
2022-08-27T06:28:13.504Z,83.52
2022-08-27T06:30:45.200Z,83.62
2022-08-27T06:33:17.405Z,83.53
2022-08-27T06:35:48.988Z,83.36
2022-08-27T06:38:20.640Z,83.33
2022-08-27T06:40:52.240Z,83.02
2022-08-27T06:43:25.214Z,83.06
2022-08-27T06:45:56.953Z,82.57
2022-08-27T06:48:28.610Z,82.26
2022-08-27T06:51:14.513Z,81.75
2022-08-27T06:53:47.500Z,81.75
2022-08-27T06:56:19.933Z,81.28
2022-08-27T06:59:00.524Z,81.08
2022-08-27T07:01:38.459Z,80.92
2022-08-27T07:04:14.152Z,80.37
2022-08-27T07:06:45.970Z,79.72
2022-08-27T07:09:20.625Z,79.47
2022-08-27T07:11:52.276Z,79.16
2022-08-27T07:14:23.901Z,78.63
2022-08-27T07:16:55.524Z,78.43
2022-08-27T07:19:30.304Z,78.39
2022-08-27T07:22:03.079Z,77.78
2022-08-27T07:24:35.805Z,77.78
2022-08-27T07:27:07.983Z,76.95
2022-08-27T07:29:40.809Z,76.90
2022-08-27T07:32:12.530Z,76.61
2022-08-27T07:34:44.303Z,76.32
2022-08-27T07:37:15.915Z,75.93
2022-08-27T07:39:47.901Z,75.26
2022-08-27T07:42:38.177Z,74.36
2022-08-27T07:45:13.146Z,74.65
2022-08-27T07:47:44.877Z,74.43
2022-08-27T07:50:16.608Z,73.84
2022-08-27T07:52:48.213Z,73.24
2022-08-27T07:55:19.951Z,73.33
2022-08-27T07:57:52.879Z,72.69
2022-08-27T08:00:25.509Z,72.96
2022-08-27T08:02:57.555Z,73.35
2022-08-27T08:05:29.968Z,72.18
2022-08-27T08:08:01.755Z,71.67
2022-08-27T08:10:36.661Z,72.28
2022-08-27T08:13:08.323Z,71.88
2022-08-27T08:15:40.102Z,71.71
2022-08-27T08:18:12.250Z,71.23
2022-08-27T08:20:57.724Z,70.94
2022-08-27T08:23:30.573Z,70.18
2022-08-27T08:26:02.842Z,69.77
2022-08-27T08:28:34.826Z,69.87
2022-08-27T08:31:07.044Z,70.24
2022-08-27T08:33:39.089Z,70.25
2022-08-27T08:36:13.706Z,70.87
2022-08-27T08:38:48.358Z,70.64
2022-08-27T08:41:38.085Z,70.74
2022-08-27T08:44:33.068Z,69.58
2022-08-27T08:47:10.299Z,69.89
2022-08-27T08:50:08.172Z,69.72
2022-08-27T08:53:07.489Z,69.49
2022-08-27T08:55:55.048Z,69.28
2022-08-27T08:58:52.752Z,69.87
2022-08-27T09:01:27.639Z,68.77
2022-08-27T09:04:09.333Z,68.54
2022-08-27T09:07:04.502Z,68.42
2022-08-27T09:09:54.774Z,69.10
2022-08-27T09:12:30.644Z,69.08
2022-08-27T09:15:26.733Z,69.20
2022-08-27T09:18:15.045Z,68.72
2022-08-27T09:20:51.506Z,69.17
2022-08-27T09:23:33.160Z,69.14
2022-08-27T09:26:04.824Z,69.39
2022-08-27T09:28:59.708Z,69.75
2022-08-27T09:31:41.113Z,69.48
2022-08-27T09:34:13.954Z,69.75
2022-08-27T09:37:00.227Z,69.39
2022-08-27T09:39:52.180Z,69.48
2022-08-27T09:42:38.782Z,69.19
2022-08-27T09:45:14.736Z,70.64
2022-08-27T09:48:02.286Z,70.88
2022-08-27T09:50:43.961Z,70.66
2022-08-27T09:53:18.891Z,71.12
2022-08-27T09:55:57.537Z,70.60
2022-08-27T09:58:34.436Z,70.45
2022-08-27T10:01:20.230Z,71.02
2022-08-27T10:04:08.115Z,70.88
2022-08-27T10:06:47.088Z,70.63
2022-08-27T10:09:34.689Z,70.13
2022-08-27T10:12:15.382Z,69.91
2022-08-27T10:14:52.540Z,69.18
2022-08-27T10:17:43.763Z,69.42
2022-08-27T10:20:31.004Z,69.34
2022-08-27T10:23:14.948Z,69.15
2022-08-27T10:26:11.877Z,68.47
2022-08-27T10:29:05.976Z,68.33
2022-08-27T10:31:46.010Z,67.25
2022-08-27T10:34:39.112Z,66.40
2022-08-27T10:37:26.183Z,65.72
2022-08-27T10:40:27.058Z,64.81
2022-08-27T10:43:20.227Z,64.62
2022-08-27T10:45:57.543Z,64.06
2022-08-27T10:48:39.902Z,63.58
2022-08-27T10:51:17.598Z,63.22
2022-08-27T10:53:58.220Z,62.48
2022-08-27T10:56:39.050Z,61.76
2022-08-27T10:59:42.159Z,60.57
2022-08-27T11:02:25.873Z,58.89
2022-08-27T11:05:06.158Z,56.77
2022-08-27T11:07:42.216Z,56.02
2022-08-27T11:10:23.759Z,55.13
2022-08-27T11:12:59.911Z,52.98
2022-08-27T11:15:35.169Z,52.14
2022-08-27T11:18:31.629Z,51.52
2022-08-27T11:21:18.849Z,52.80
2022-08-27T11:23:59.428Z,52.90
2022-08-27T11:26:33.642Z,52.19
2022-08-27T11:29:33.175Z,52.12
2022-08-27T11:32:18.775Z,52.21
2022-08-27T11:34:58.230Z,52.16
2022-08-27T11:37:48.628Z,50.84
2022-08-27T11:40:41.700Z,51.40
2022-08-27T11:43:18.415Z,51.62
2022-08-27T11:45:57.526Z,52.15
2022-08-27T11:48:30.313Z,51.61
2022-08-27T11:51:03.731Z,52.12
2022-08-27T11:53:42.709Z,51.94
2022-08-27T11:56:36.893Z,52.21
2022-08-27T11:59:32.537Z,53.24
2022-08-27T12:02:26.161Z,52.52
2022-08-27T12:05:10.537Z,51.56
2022-08-27T12:07:46.041Z,51.00
2022-08-27T12:10:29.848Z,51.81
2022-08-27T12:13:25.095Z,52.57
2022-08-27T12:16:16.391Z,52.16
2022-08-27T12:19:18.171Z,53.15
2022-08-27T12:21:49.741Z,54.83
2022-08-27T12:24:42.913Z,56.92
2022-08-27T12:27:29.500Z,60.48
2022-08-27T12:30:29.897Z,62.20
2022-08-27T12:33:13.751Z,63.62
2022-08-27T12:35:48.658Z,63.69
2022-08-27T12:38:37.794Z,64.58
2022-08-27T12:41:10.041Z,64.23
2022-08-27T12:43:43.967Z,64.84
2022-08-27T12:46:19.025Z,65.35
2022-08-27T12:49:10.067Z,64.79
2022-08-27T12:51:52.925Z,64.07
2022-08-27T12:54:42.825Z,62.75
2022-08-27T12:57:41.620Z,63.28
2022-08-27T13:00:24.163Z,62.93
2022-08-27T13:03:26.693Z,62.92
2022-08-27T13:06:00.898Z,63.44
2022-08-27T13:08:33.842Z,63.13
2022-08-27T13:11:21.905Z,62.72
2022-08-27T13:14:06.172Z,63.48
2022-08-27T13:16:43.017Z,62.88
2022-08-27T13:19:24.218Z,63.76
2022-08-27T13:21:56.875Z,64.48
2022-08-27T13:24:44.362Z,64.99
2022-08-27T13:27:16.329Z,65.46
2022-08-27T13:29:48.098Z,65.34
2022-08-27T13:32:20.559Z,64.94
2022-08-27T13:34:53.432Z,64.24
2022-08-27T13:37:30.217Z,64.33
2022-08-27T13:40:02.025Z,65.13
2022-08-27T13:42:33.971Z,65.80
2022-08-27T13:45:06.288Z,65.99
2022-08-27T13:47:48.841Z,66.07
2022-08-27T13:50:29.755Z,66.19
2022-08-27T13:53:25.774Z,65.78
2022-08-27T13:55:58.895Z,66.11
2022-08-27T13:58:33.590Z,65.96
2022-08-27T14:01:14.693Z,66.06
2022-08-27T14:04:03.755Z,66.00
2022-08-27T14:06:46.635Z,65.33
2022-08-27T14:09:25.426Z,65.19
2022-08-27T14:12:04.379Z,64.29
2022-08-27T14:14:38.882Z,63.72
2022-08-27T14:17:29.821Z,63.94
2022-08-27T14:20:02.927Z,64.27
2022-08-27T14:22:38.700Z,64.66
2022-08-27T14:25:10.763Z,65.06
2022-08-27T14:27:47.892Z,65.29
2022-08-27T14:30:29.318Z,66.37
2022-08-27T14:33:02.531Z,67.31
2022-08-27T14:35:35.954Z,67.90
2022-08-27T14:38:20.420Z,66.67
2022-08-27T14:40:54.571Z,66.48
2022-08-27T14:43:26.296Z,65.35
2022-08-27T14:45:58.773Z,64.97
2022-08-27T14:48:33.911Z,64.37
2022-08-27T14:51:12.316Z,63.02
2022-08-27T14:53:43.958Z,63.10
2022-08-27T14:56:17.839Z,65.30
2022-08-27T14:58:49.911Z,66.43
2022-08-27T15:01:26.372Z,67.07
2022-08-27T15:03:58.528Z,68.02
2022-08-27T15:06:30.564Z,68.14
2022-08-27T15:09:03.433Z,68.12
2022-08-27T15:11:37.616Z,68.06
2022-08-27T15:14:12.838Z,68.29
2022-08-27T15:16:44.716Z,67.76
2022-08-27T15:19:19.650Z,68.05
2022-08-27T15:21:53.251Z,67.99
2022-08-27T15:24:28.566Z,68.23
2022-08-27T15:27:00.214Z,68.11
2022-08-27T15:29:31.810Z,68.29
2022-08-27T15:32:04.164Z,67.92
2022-08-27T15:34:35.805Z,68.20
2022-08-27T15:37:07.493Z,67.25
2022-08-27T15:39:39.128Z,66.98
2022-08-27T15:42:11.633Z,67.11
2022-08-27T15:44:49.559Z,67.74
2022-08-27T15:47:22.505Z,67.69
2022-08-27T15:49:54.219Z,67.34
2022-08-27T15:52:40.237Z,67.26
2022-08-27T15:55:25.920Z,67.24
2022-08-27T15:57:58.365Z,67.95
2022-08-27T16:00:33.702Z,68.88
2022-08-27T16:03:09.186Z,68.60
2022-08-27T16:05:44.220Z,68.79
2022-08-27T16:08:15.855Z,69.00
2022-08-27T16:10:47.569Z,69.09
2022-08-27T16:13:19.678Z,68.46
2022-08-27T16:15:52.154Z,68.61
2022-08-27T16:18:30.757Z,68.27
2022-08-27T16:21:04.173Z,68.32
2022-08-27T16:23:36.645Z,66.64
2022-08-27T16:26:08.220Z,66.80
2022-08-27T16:28:39.825Z,65.80
2022-08-27T16:31:13.601Z,65.67
2022-08-27T16:33:45.389Z,64.40
2022-08-27T16:36:17.028Z,64.68
2022-08-27T16:38:48.718Z,64.07
2022-08-27T16:41:21.389Z,63.87
2022-08-27T16:43:53.058Z,62.99
2022-08-27T16:46:25.097Z,63.54
2022-08-27T16:49:15.086Z,63.95
2022-08-27T16:51:46.931Z,62.56
2022-08-27T16:54:18.669Z,62.63
2022-08-27T16:56:50.473Z,64.22
2022-08-27T16:59:22.136Z,63.89
2022-08-27T17:01:55.310Z,63.92
2022-08-27T17:04:32.328Z,62.80
2022-08-27T17:07:09.883Z,62.14
2022-08-27T17:09:41.513Z,62.13
2022-08-27T17:12:15.062Z,62.16
2022-08-27T17:14:46.958Z,62.79
2022-08-27T17:17:19.276Z,62.57
2022-08-27T17:19:50.863Z,62.96
2022-08-27T17:22:22.490Z,63.26
2022-08-27T17:24:54.091Z,64.36
2022-08-27T17:27:25.753Z,64.36
2022-08-27T17:30:03.742Z,64.64
2022-08-27T17:32:39.815Z,65.24
2022-08-27T17:35:11.885Z,65.53
2022-08-27T17:37:43.537Z,65.60
2022-08-27T17:40:15.172Z,65.74
2022-08-27T17:42:46.935Z,65.93
2022-08-27T17:45:18.694Z,65.71
2022-08-27T17:47:50.316Z,65.67
2022-08-27T17:50:21.900Z,65.88
2022-08-27T17:52:53.504Z,65.82
2022-08-27T17:55:27.338Z,66.47
2022-08-27T17:57:58.916Z,66.60
2022-08-27T18:00:31.571Z,66.37
2022-08-27T18:03:04.261Z,65.62
2022-08-27T18:05:35.870Z,65.84
2022-08-27T18:08:07.573Z,66.06
2022-08-27T18:10:41.075Z,66.50
2022-08-27T18:13:14.866Z,66.47
2022-08-27T18:15:47.882Z,66.85
2022-08-27T18:18:19.630Z,67.36
2022-08-27T18:20:51.568Z,67.56
2022-08-27T18:23:23.753Z,67.90
2022-08-27T18:25:55.937Z,68.28
2022-08-27T18:28:28.861Z,68.29
2022-08-27T18:31:05.503Z,68.51
2022-08-27T18:33:38.501Z,68.63
2022-08-27T18:36:10.981Z,69.08
2022-08-27T18:38:50.055Z,68.97
2022-08-27T18:41:22.525Z,69.28
2022-08-27T18:43:54.200Z,69.49
2022-08-27T18:46:25.941Z,69.37
2022-08-27T18:48:57.606Z,69.80
2022-08-27T18:51:31.442Z,69.57
2022-08-27T18:54:07.393Z,70.39
2022-08-27T18:56:39.048Z,69.78
2022-08-27T18:59:11.245Z,70.42
2022-08-27T19:01:44.637Z,70.65
2022-08-27T19:04:18.491Z,71.01
2022-08-27T19:06:50.217Z,70.99
2022-08-27T19:09:21.792Z,71.09
2022-08-27T19:11:53.410Z,71.86
2022-08-27T19:14:25.018Z,71.70
2022-08-27T19:16:57.316Z,71.26
2022-08-27T19:19:29.086Z,71.53
2022-08-27T19:22:00.944Z,71.68
2022-08-27T19:24:40.015Z,72.11
2022-08-27T19:27:11.962Z,71.83
2022-08-27T19:29:43.975Z,71.22
2022-08-27T19:32:18.573Z,71.44
2022-08-27T19:34:52.690Z,71.65
2022-08-27T19:37:26.829Z,71.32
2022-08-27T19:39:58.561Z,71.47
2022-08-27T19:42:31.096Z,71.35
2022-08-27T19:45:02.719Z,71.63
2022-08-27T19:50:09.429Z,71.52
2022-08-27T19:52:40.921Z,71.90
2022-08-27T19:55:14.452Z,71.53
2022-08-27T19:57:48.275Z,71.67
2022-08-27T20:00:21.773Z,71.57
2022-08-27T20:05:25.263Z,71.25
2022-08-27T20:07:56.977Z,71.16
2022-08-27T20:10:35.942Z,71.42
2022-08-27T20:13:08.621Z,71.51
2022-08-27T20:15:40.774Z,71.31
2022-08-27T20:18:13.130Z,71.28
2022-08-27T20:20:44.941Z,71.46
2022-08-27T20:23:16.514Z,71.71
2022-08-27T20:25:48.231Z,71.52
2022-08-27T20:28:39.017Z,71.95
2022-08-27T20:31:11.305Z,72.13
2022-08-27T20:33:44.379Z,72.74
2022-08-27T20:36:16.188Z,72.79
2022-08-27T20:38:47.809Z,72.51
2022-08-27T20:41:20.637Z,72.84
2022-08-27T20:43:52.289Z,72.92
2022-08-27T20:46:26.370Z,72.88
2022-08-27T20:48:58.104Z,73.43
2022-08-27T20:51:29.792Z,73.08
2022-08-27T20:54:21.643Z,73.08
2022-08-27T20:56:53.377Z,72.67
2022-08-27T20:59:43.979Z,72.86
2022-08-27T21:02:21.554Z,72.96
2022-08-27T21:04:54.049Z,72.72
2022-08-27T21:07:25.797Z,72.51
2022-08-27T21:09:57.712Z,72.66
2022-08-27T21:12:31.840Z,72.65
2022-08-27T21:15:05.363Z,72.45
2022-08-27T21:17:37.108Z,72.80
2022-08-27T21:20:12.843Z,72.98
2022-08-27T21:22:44.869Z,73.05
2022-08-27T21:25:16.540Z,73.43
2022-08-27T21:27:48.117Z,73.13
2022-08-27T21:30:21.523Z,73.28
2022-08-27T21:32:55.853Z,73.55
2022-08-27T21:35:31.111Z,73.64
2022-08-27T21:38:03.313Z,73.66
2022-08-27T21:40:34.991Z,73.85
2022-08-27T21:43:07.128Z,74.33
2022-08-27T21:45:39.392Z,74.41
2022-08-27T21:48:11.325Z,74.37
2022-08-27T21:50:43.117Z,74.47
2022-08-27T21:53:15.228Z,74.47
2022-08-27T21:55:47.372Z,74.23
2022-08-27T21:58:23.328Z,74.86
2022-08-27T22:00:58.636Z,74.62
2022-08-27T22:03:31.277Z,74.64
2022-08-27T22:06:06.644Z,74.62
2022-08-27T22:08:39.101Z,74.99
2022-08-27T22:11:11.818Z,75.05
2022-08-27T22:13:43.536Z,75.13
2022-08-27T22:16:15.197Z,75.49
2022-08-27T22:18:46.811Z,75.40
2022-08-27T22:21:26.819Z,75.67
2022-08-27T22:23:58.786Z,75.35
2022-08-27T22:26:30.961Z,75.65
2022-08-27T22:29:03.848Z,75.73
2022-08-27T22:31:35.745Z,75.27
2022-08-27T22:34:08.109Z,75.31
2022-08-27T22:36:48.167Z,75.47
2022-08-27T22:39:20.188Z,75.21
2022-08-27T22:41:51.960Z,75.00
2022-08-27T22:44:24.782Z,74.36
2022-08-27T22:46:57.273Z,74.53
2022-08-27T22:49:28.902Z,74.48
2022-08-27T22:52:00.534Z,74.37
2022-08-27T22:54:32.260Z,73.93
2022-08-27T22:57:04.240Z,73.84
2022-08-27T22:59:35.963Z,73.67
2022-08-27T23:02:10.916Z,73.97
2022-08-27T23:04:54.685Z,74.35
2022-08-27T23:07:27.387Z,74.47
2022-08-27T23:10:01.912Z,74.46
2022-08-27T23:12:37.802Z,74.01
2022-08-27T23:15:11.547Z,73.95
2022-08-27T23:17:43.274Z,73.98
2022-08-27T23:20:16.240Z,74.04
2022-08-27T23:22:52.903Z,74.71
2022-08-27T23:25:45.603Z,74.63
2022-08-27T23:28:17.570Z,74.86
2022-08-27T23:30:49.702Z,73.96
2022-08-27T23:33:21.390Z,74.10
2022-08-27T23:35:53.004Z,73.97
2022-08-27T23:38:24.636Z,74.38
2022-08-27T23:40:56.829Z,74.14
2022-08-27T23:43:28.663Z,73.84
2022-08-27T23:46:00.316Z,74.18
2022-08-27T23:48:34.109Z,74.31
2022-08-27T23:51:07.869Z,74.18
2022-08-27T23:53:39.522Z,73.96
2022-08-27T23:56:11.243Z,73.94
2022-08-27T23:58:43.050Z,73.58
